^^
Saratoga-Weather Station Historical Data
Daily Summary for March 14, 2021 Units:  Metric    English   Both
Daily Weekly Monthly Yearly Custom
  High: Low: Average:
Temperature: 9.7 °C 6.7 °C 8.4 °C
Dew Point: 7.5 °C 5.6 °C 6.8 °C
Humidity: 93% 85% 90%
Wind Speed: 4.7km/h 0km/h 0.5km/h
Wind Gust: 11.3km/h - -
Wind- - WSW
Pressure: 1007.5 hPa 1007.1 hPa -
Precipitation: 0.0 mm    
Historical Graphs
 
 
Tabular Data for March 14, 2021
Time Temperature Dew Point Pressure Wind Wind Speed Wind Gust Humidity Rainfall Rate (Hourly) solar
00:01 9.7 °C 7.3 °C 1007.5 hPa Calm   1.6 km/h 85% 0.0 mm 0 W/m2
00:06 9.6 °C 7.4 °C 1007.5 hPa Calm   1.6 km/h 86% 0.0 mm 0 W/m2
00:11 9.5 °C 7.3 °C 1007.5 hPa Calm   1.6 km/h 86% 0.0 mm 0 W/m2
00:16 9.4 °C 7.2 °C 1007.5 hPa Calm   4.8 km/h 86% 0.0 mm 0 W/m2
00:21 9.3 °C 7.1 °C 1007.5 hPa ESE 1.4 km/h 1.6 km/h 86% 0.0 mm 0 W/m2
00:26 9.2 °C 7.1 °C 1007.5 hPa Calm   3.2 km/h 87% 0.0 mm 0 W/m2
00:31 9.2 °C 7.3 °C 1007.5 hPa SW 1.4 km/h 3.2 km/h 88% 0.0 mm 0 W/m2
00:36 9.2 °C 7.3 °C 1007.5 hPa Calm   6.4 km/h 88% 0.0 mm 0 W/m2
00:41 9.3 °C 7.4 °C 1007.5 hPa Calm   4.8 km/h 88% 0.0 mm 0 W/m2
00:46 9.3 °C 7.4 °C 1007.5 hPa SSE 1.4 km/h 4.8 km/h 88% 0.0 mm 0 W/m2
00:51 9.4 °C 7.5 °C 1007.5 hPa WNW 1.4 km/h 9.7 km/h 88% 0.0 mm 0 W/m2
00:56 9.4 °C 7.5 °C 1007.5 hPa Calm   4.8 km/h 88% 0.0 mm 0 W/m2
01:01 9.4 °C 7.5 °C 1007.5 hPa West 4.7 km/h 11.3 km/h 88% 0.0 mm 0 W/m2
01:06 9.4 °C 7.5 °C 1007.5 hPa West 3.2 km/h 4.8 km/h 88% 0.0 mm 0 W/m2
01:11 9.3 °C 7.4 °C 1007.5 hPa WSW 1.4 km/h 11.3 km/h 88% 0.0 mm 0 W/m2
01:16 9.3 °C 7.4 °C 1007.5 hPa West 3.2 km/h 3.2 km/h 88% 0.0 mm 0 W/m2
01:21 9.2 °C 7.3 °C 1007.1 hPa WNW 1.4 km/h 6.4 km/h 88% 0.0 mm 0 W/m2
01:26 9.2 °C 7.5 °C 1007.1 hPa WNW 3.2 km/h 6.4 km/h 89% 0.0 mm 0 W/m2
01:31 9.2 °C 7.5 °C 1007.1 hPa Calm   3.2 km/h 89% 0.0 mm 0 W/m2
01:36 9.2 °C 7.3 °C 1007.1 hPa Calm   1.6 km/h 88% 0.0 mm 0 W/m2
01:41 9.1 °C 7.2 °C 1007.1 hPa West 1.4 km/h 6.4 km/h 88% 0.0 mm 0 W/m2
01:46 9 °C 7.1 °C 1007.1 hPa WNW 1.4 km/h 4.8 km/h 88% 0.0 mm 0 W/m2
01:51 8.9 °C 7.2 °C 1007.1 hPa Calm   6.4 km/h 89% 0.0 mm 0 W/m2
01:56 8.9 °C 7.2 °C 1007.1 hPa Calm   3.2 km/h 89% 0.0 mm 0 W/m2
02:01 8.9 °C 7.2 °C 1007.5 hPa West 1.4 km/h 3.2 km/h 89% 0.0 mm 0 W/m2
02:06 8.9 °C 7.2 °C 1007.5 hPa Calm   1.6 km/h 89% 0.0 mm 0 W/m2
02:11 8.8 °C 7.1 °C 1007.5 hPa Calm   4.8 km/h 89% 0.0 mm 0 W/m2
02:16 8.8 °C 7.1 °C 1007.5 hPa WSW 1.4 km/h 3.2 km/h 89% 0.0 mm 0 W/m2
02:21 8.8 °C 7.1 °C 1007.5 hPa WSW 3.2 km/h 4.8 km/h 89% 0.0 mm 0 W/m2
02:26 8.8 °C 7.1 °C 1007.5 hPa West 3.2 km/h 3.2 km/h 89% 0.0 mm 0 W/m2
02:31 8.8 °C 7.1 °C 1007.5 hPa Calm   4.8 km/h 89% 0.0 mm 0 W/m2
02:36 8.8 °C 7.1 °C 1007.5 hPa WSW 1.4 km/h 4.8 km/h 89% 0.0 mm 0 W/m2
02:41 8.8 °C 7.1 °C 1007.5 hPa WSW 1.4 km/h 6.4 km/h 89% 0.0 mm 0 W/m2
02:46 8.8 °C 7.1 °C 1007.1 hPa NW 1.4 km/h 3.2 km/h 89% 0.0 mm 0 W/m2
02:51 8.8 °C 7.1 °C 1007.5 hPa NW 1.4 km/h 6.4 km/h 89% 0.0 mm 0 W/m2
02:56 8.8 °C 7.1 °C 1007.5 hPa Calm     89% 0.0 mm 0 W/m2
03:01 8.7 °C 7 °C 1007.5 hPa Calm     89% 0.0 mm 0 W/m2
03:06 8.6 °C 6.9 °C 1007.1 hPa Calm     89% 0.0 mm 0 W/m2
03:11 8.6 °C 6.9 °C 1007.1 hPa Calm     89% 0.0 mm 0 W/m2
03:16 8.4 °C 6.7 °C 1007.1 hPa Calm     89% 0.0 mm 0 W/m2
03:21 8.3 °C 6.6 °C 1007.1 hPa Calm     89% 0.0 mm 0 W/m2
03:26 8.3 °C 6.8 °C 1007.1 hPa Calm     90% 0.0 mm 0 W/m2
03:31 8.2 °C 6.7 °C 1007.1 hPa Calm     90% 0.0 mm 0 W/m2
03:36 8.2 °C 6.7 °C 1007.1 hPa Calm     90% 0.0 mm 0 W/m2
03:41 8.2 °C 6.8 °C 1007.1 hPa Calm   1.6 km/h 91% 0.0 mm 0 W/m2
03:46 8.2 °C 6.8 °C 1007.1 hPa Calm     91% 0.0 mm 0 W/m2
03:51 8.1 °C 6.7 °C 1007.1 hPa Calm     91% 0.0 mm 0 W/m2
03:56 8.1 °C 6.7 °C 1007.1 hPa Calm     91% 0.0 mm 0 W/m2
04:01 8.1 °C 6.7 °C 1007.1 hPa Calm     91% 0.0 mm 0 W/m2
04:06 8.1 °C 6.7 °C 1007.1 hPa Calm     91% 0.0 mm 0 W/m2
04:11 8.1 °C 6.7 °C 1007.1 hPa Calm     91% 0.0 mm 0 W/m2
04:16 8 °C 6.6 °C 1007.1 hPa Calm     91% 0.0 mm 0 W/m2
04:21 8 °C 6.6 °C 1007.1 hPa Calm     91% 0.0 mm 0 W/m2
04:26 8 °C 6.6 °C 1007.1 hPa Calm     91% 0.0 mm 0 W/m2
04:31 7.9 °C 6.7 °C 1007.1 hPa Calm     92% 0.0 mm 0 W/m2
04:36 7.9 °C 6.7 °C 1007.1 hPa Calm     92% 0.0 mm 0 W/m2
04:41 7.8 °C 6.6 °C 1007.1 hPa Calm     92% 0.0 mm 0 W/m2
04:46 7.8 °C 6.4 °C 1007.1 hPa Calm     91% 0.0 mm 0 W/m2
04:51 7.7 °C 6.5 °C 1007.1 hPa Calm     92% 0.0 mm 0 W/m2
04:56 7.6 °C 6.4 °C 1007.1 hPa Calm     92% 0.0 mm 0 W/m2
05:01 7.5 °C 6.3 °C 1007.1 hPa Calm     92% 0.0 mm 0 W/m2
05:06 7.4 °C 6 °C 1007.1 hPa Calm     91% 0.0 mm 0 W/m2
05:11 7.2 °C 6 °C 1007.1 hPa Calm     92% 0.0 mm 0 W/m2
05:16 7.1 °C 5.9 °C 1007.1 hPa Calm     92% 0.0 mm 0 W/m2
05:21 7 °C 5.8 °C 1007.1 hPa Calm     92% 0.0 mm 0 W/m2
05:26 6.9 °C 5.7 °C 1007.1 hPa Calm     92% 0.0 mm 0 W/m2
05:31 6.8 °C 5.6 °C 1007.1 hPa Calm     92% 0.0 mm 0 W/m2
05:36 6.8 °C 5.7 °C 1007.1 hPa Calm     93% 0.0 mm 0 W/m2
05:41 6.8 °C 5.7 °C 1007.1 hPa Calm     93% 0.0 mm 0 W/m2
05:46 6.8 °C 5.7 °C 1007.1 hPa Calm     93% 0.0 mm 0 W/m2
05:51 6.8 °C 5.7 °C 1007.1 hPa Calm     93% 0.0 mm 0 W/m2
05:56 6.8 °C 5.7 °C 1007.1 hPa Calm     93% 0.0 mm 0 W/m2
06:01 6.8 °C 5.7 °C 1007.1 hPa Calm     93% 0.0 mm 5 W/m2
06:06 6.7 °C 5.6 °C 1007.1 hPa Calm     93% 0.0 mm 5 W/m2
Juneau County Weather
Compliments of Weather Underground - 2 mb